createdAt,value
2022-12-08T00:06:55.851Z,37
2022-12-08T00:22:12.794Z,37
2022-12-08T00:37:28.794Z,37
2022-12-08T00:52:44.710Z,37.5
2022-12-08T01:08:01.848Z,37
2022-12-08T01:23:17.657Z,37.5
2022-12-08T01:38:34.664Z,37.5
2022-12-08T01:53:51.599Z,37.5
2022-12-08T02:09:08.609Z,37.5
2022-12-08T02:24:24.546Z,37.5
2022-12-08T02:39:40.550Z,37.5
2022-12-08T02:55:10.891Z,37.5
2022-12-08T03:10:14.493Z,37.5
2022-12-08T03:25:30.435Z,37.5
2022-12-08T03:40:46.425Z,37.5
2022-12-08T03:56:03.350Z,37.5
2022-12-08T04:11:20.362Z,38
2022-12-08T04:26:37.289Z,38
2022-12-08T04:41:53.293Z,38
2022-12-08T04:57:10.259Z,38
2022-12-08T05:12:26.207Z,38
2022-12-08T05:27:42.212Z,38
2022-12-08T05:42:58.155Z,38
2022-12-08T05:58:15.134Z,38
2022-12-08T06:13:32.078Z,38
2022-12-08T06:28:49.092Z,38
2022-12-08T06:44:06.009Z,38.5
2022-12-08T06:59:22.985Z,38.5
2022-12-08T07:14:38.968Z,38.5
2022-12-08T07:29:54.935Z,38.5
2022-12-08T07:45:10.904Z,38.5
2022-12-08T08:00:28.027Z,37
2022-12-08T08:15:44.937Z,36
2022-12-08T08:31:01.916Z,35.5
2022-12-08T08:46:17.795Z,35
2022-12-08T09:01:34.817Z,34.5
2022-12-08T09:16:50.785Z,34
2022-12-08T09:32:06.681Z,33.5
2022-12-08T09:47:23.688Z,33
2022-12-08T10:02:42.640Z,34
2022-12-08T10:17:58.621Z,35
2022-12-08T10:33:14.577Z,35.5
2022-12-08T10:48:30.563Z,35.5
2022-12-08T11:03:47.542Z,36
2022-12-08T11:19:03.513Z,36
2022-12-08T11:34:20.440Z,36.5
2022-12-08T11:49:37.435Z,36.5
2022-12-08T12:04:54.403Z,36.5
2022-12-08T12:20:10.384Z,36.5
2022-12-08T12:35:27.439Z,36.5
2022-12-08T12:50:42.302Z,37
2022-12-08T13:05:59.281Z,37
2022-12-08T13:21:16.261Z,37.5
2022-12-08T13:36:33.221Z,38
2022-12-08T13:53:56.187Z,38
2022-12-08T14:07:06.173Z,38
2022-12-08T14:22:22.098Z,38
2022-12-08T14:37:38.213Z,38
2022-12-08T14:52:54.027Z,38.5
2022-12-08T15:08:11.077Z,38.5
2022-12-08T15:23:27.978Z,38.5
2022-12-08T15:38:44.970Z,38.5
2022-12-08T15:54:00.920Z,38.5
2022-12-08T16:09:18.132Z,38.5
2022-12-08T16:24:33.844Z,38.5
2022-12-08T16:39:49.889Z,38.5
2022-12-08T16:55:07.111Z,38.5
2022-12-08T17:10:24.791Z,38.5
2022-12-08T17:25:41.735Z,38.5
2022-12-08T17:40:58.734Z,38.5
2022-12-08T17:56:13.673Z,38.5
2022-12-08T18:11:30.659Z,38.5
2022-12-08T18:26:46.606Z,38.5
2022-12-08T18:42:02.562Z,38.5
2022-12-08T18:57:19.577Z,38.5
2022-12-08T19:12:37.503Z,39
2022-12-08T19:27:54.518Z,39
2022-12-08T19:43:10.443Z,39
2022-12-08T19:58:26.452Z,39
2022-12-08T20:13:43.389Z,39
2022-12-08T20:28:59.402Z,39
2022-12-08T20:44:16.334Z,39
2022-12-08T20:59:33.408Z,39
2022-12-08T21:14:51.266Z,39
2022-12-08T21:30:07.651Z,39
2022-12-08T21:45:23.306Z,39
2022-12-08T22:00:39.274Z,39
2022-12-08T22:15:56.226Z,39.5
2022-12-08T22:31:12.155Z,39.5
2022-12-08T22:31:59.099Z,39.5
2022-12-08T22:46:30.149Z,39.5
2022-12-08T23:01:42.016Z,39.5
2022-12-08T23:16:59.182Z,39.5
2022-12-08T23:32:16.073Z,39.5
2022-12-08T23:47:32.260Z,39.5
